Gillette, WY (82716)

12:20 PM MDT on April 28, 2017 (GMT -0600)
Lakeland Hills | | Change Station
Active Advisory: Winter Weather Advisory

Elev 4580 ft 44.30 °N, 105.48 °W | Updated 1 second ago

Snow
Snow
39.9 °F
Feels Like 38 °F
N
3.1
Wind Variable Wind from NNW
Gusts 3.1 mph

Today
High -- | Low -- °F
--% Chance of Precip.
Yesterday
High -- | Low -- °F
Precip. -- in
Pressure 29.95 in
Visibility -9999.0 miles
Clouds Overcast 600 ft
Windchill 38 °F
Dew Point 37 °F
Humidity 89%
Rainfall 0.00 in
Snow Depth Not available.
5:56 AM 8:03 PM
Waxing Crescent, 8% visible
SPECI KGCC 281815Z AUTO 02010KT SN OVC006 01/01 A2995 RMK AO2 P0002 T00110006 $
Pressure 29.95 in
Visibility -9999.0 miles
Clouds Overcast 600 ft
Windchill 38 °F
Dew Point 37 °F
Humidity 89%
Rainfall 0.00 in
Snow Depth Not available.
5:56 AM 8:03 PM
Waxing Crescent, 8% visible
SPECI KGCC 281815Z AUTO 02010KT SN OVC006 01/01 A2995 RMK AO2 P0002 T00110006 $

Get Your Daily Forecast Email!

Thanks for signing up!

Be on the lookout for a verification email in your inbox.

You'll start receiving severe weather alerts in your inbox..

×

10-Day Weather Forecast

Almanac

Astronomy

Apr. 28, 2017 Rise Set
Actual Time
Civil Twilight
Nautical Twilight
Astronomical Twilight
Moon
Length of Visible Light
Length of Day
Tomorrow will be .
, % of the Moon is Illuminated

Today's Extremes

State Highs State Lows

Community

WunderPhotos

WunderBlog® & News

Nearby

Air Quality

  Air Quality AQ Index Pollutant
Not available.

Snow Depth

Station Depth Elevation

Earthquake Activity

City Distance Mag. Time & Date
Minimum magnitude displayed is 2.5.

Coastal Water Temperatures

Place Temperature

Stations

Nearby Weather Stations

Station Location Temp. Windchill Dew Point Humidity Wind Precip. Elev Updated Type
                   

Watches & Warnings

Winter Weather Advisory
Issued: 11:18 AM MDT Apr. 28, 2017 – National Weather Service

... Winter Weather Advisory remains in effect until 6 PM MDT this
evening...

* timing... light snow will continue into the afternoon before
ending late.

* Main impact... additional accumulations of up to an inch can be
expected through the afternoon, mainly along the Interstate 90
corridor and the Gillette area.

* Other impacts... visibilities will be reduced to near a quarter
mile in any heavier snow. With many trees beginning to Leaf
out, the heavy wet snow could bring down some tree limbs.

Precautionary/preparedness actions...

A Winter Weather Advisory for snow means snow accumulation will
create hazardous conditions. Use caution when traveling.